sensor_id;sensor_type;location;lat;lon;timestamp;P1;durP1;ratioP1;P2;durP2;ratioP2
34900;SDS011;21112;51.976;5.660;2022-08-21T00:00:18;4.18;;;1.60;;
34900;SDS011;21112;51.976;5.660;2022-08-21T00:02:45;3.95;;;1.80;;
34900;SDS011;21112;51.976;5.660;2022-08-21T00:05:12;2.88;;;1.60;;
34900;SDS011;21112;51.976;5.660;2022-08-21T00:07:39;8.10;;;1.60;;
34900;SDS011;21112;51.976;5.660;2022-08-21T00:10:06;3.85;;;1.77;;
34900;SDS011;21112;51.976;5.660;2022-08-21T00:12:35;4.30;;;1.85;;
34900;SDS011;21112;51.976;5.660;2022-08-21T00:15:03;3.38;;;1.50;;
34900;SDS011;21112;51.976;5.660;2022-08-21T00:17:30;6.03;;;2.10;;
34900;SDS011;21112;51.976;5.660;2022-08-21T00:20:00;3.97;;;2.00;;
34900;SDS011;21112;51.976;5.660;2022-08-21T00:22:26;3.15;;;1.50;;
34900;SDS011;21112;51.976;5.660;2022-08-21T00:24:53;4.45;;;1.77;;
34900;SDS011;21112;51.976;5.660;2022-08-21T00:27:19;5.15;;;1.70;;
34900;SDS011;21112;51.976;5.660;2022-08-21T00:29:47;4.13;;;1.80;;
34900;SDS011;21112;51.976;5.660;2022-08-21T00:32:19;3.05;;;1.58;;
34900;SDS011;21112;51.976;5.660;2022-08-21T00:34:45;4.05;;;1.75;;
34900;SDS011;21112;51.976;5.660;2022-08-21T00:37:12;2.63;;;1.38;;
34900;SDS011;21112;51.976;5.660;2022-08-21T00:39:39;3.80;;;1.75;;
34900;SDS011;21112;51.976;5.660;2022-08-21T00:42:06;4.72;;;2.10;;
34900;SDS011;21112;51.976;5.660;2022-08-21T00:44:32;4.10;;;1.90;;
34900;SDS011;21112;51.976;5.660;2022-08-21T00:47:00;4.45;;;1.90;;
34900;SDS011;21112;51.976;5.660;2022-08-21T00:49:27;5.63;;;1.65;;
34900;SDS011;21112;51.976;5.660;2022-08-21T00:51:57;5.80;;;1.70;;
34900;SDS011;21112;51.976;5.660;2022-08-21T00:54:25;3.83;;;1.70;;
34900;SDS011;21112;51.976;5.660;2022-08-21T00:56:52;5.32;;;1.77;;
34900;SDS011;21112;51.976;5.660;2022-08-21T00:59:20;6.20;;;1.90;;
34900;SDS011;21112;51.976;5.660;2022-08-21T01:01:50;5.15;;;1.88;;
34900;SDS011;21112;51.976;5.660;2022-08-21T01:04:21;3.00;;;1.60;;
34900;SDS011;21112;51.976;5.660;2022-08-21T01:06:48;4.38;;;1.67;;
34900;SDS011;21112;51.976;5.660;2022-08-21T01:09:16;5.15;;;1.80;;
34900;SDS011;21112;51.976;5.660;2022-08-21T01:11:44;3.40;;;1.70;;
34900;SDS011;21112;51.976;5.660;2022-08-21T01:14:11;3.95;;;1.50;;
34900;SDS011;21112;51.976;5.660;2022-08-21T01:16:38;5.15;;;1.90;;
34900;SDS011;21112;51.976;5.660;2022-08-21T01:19:05;4.57;;;1.65;;
34900;SDS011;21112;51.976;5.660;2022-08-21T01:21:35;3.70;;;1.70;;
34900;SDS011;21112;51.976;5.660;2022-08-21T01:24:02;4.90;;;1.70;;
34900;SDS011;21112;51.976;5.660;2022-08-21T01:26:30;3.67;;;1.65;;
34900;SDS011;21112;51.976;5.660;2022-08-21T01:28:57;5.53;;;2.05;;
34900;SDS011;21112;51.976;5.660;2022-08-21T01:31:30;4.00;;;1.75;;
34900;SDS011;21112;51.976;5.660;2022-08-21T01:33:58;6.00;;;1.90;;
34900;SDS011;21112;51.976;5.660;2022-08-21T01:36:24;4.13;;;1.90;;
34900;SDS011;21112;51.976;5.660;2022-08-21T01:38:52;3.05;;;1.73;;
34900;SDS011;21112;51.976;5.660;2022-08-21T01:41:20;4.00;;;2.00;;
34900;SDS011;21112;51.976;5.660;2022-08-21T01:43:46;5.03;;;2.05;;
34900;SDS011;21112;51.976;5.660;2022-08-21T01:46:13;3.90;;;1.70;;
34900;SDS011;21112;51.976;5.660;2022-08-21T01:48:40;4.10;;;1.73;;
34900;SDS011;21112;51.976;5.660;2022-08-21T01:51:07;4.05;;;1.70;;
34900;SDS011;21112;51.976;5.660;2022-08-21T01:53:34;3.40;;;1.65;;
34900;SDS011;21112;51.976;5.660;2022-08-21T01:56:04;4.15;;;1.90;;
34900;SDS011;21112;51.976;5.660;2022-08-21T01:58:31;3.90;;;1.63;;
34900;SDS011;21112;51.976;5.660;2022-08-21T02:00:59;4.22;;;1.80;;
34900;SDS011;21112;51.976;5.660;2022-08-21T02:03:26;5.18;;;1.70;;
34900;SDS011;21112;51.976;5.660;2022-08-21T02:05:53;3.40;;;1.55;;
34900;SDS011;21112;51.976;5.660;2022-08-21T02:08:20;4.75;;;1.90;;
34900;SDS011;21112;51.976;5.660;2022-08-21T02:10:48;5.68;;;1.75;;
34900;SDS011;21112;51.976;5.660;2022-08-21T02:13:16;3.72;;;1.60;;
34900;SDS011;21112;51.976;5.660;2022-08-21T02:15:43;3.88;;;1.50;;
34900;SDS011;21112;51.976;5.660;2022-08-21T02:18:09;3.67;;;1.80;;
34900;SDS011;21112;51.976;5.660;2022-08-21T02:20:39;4.75;;;1.80;;
34900;SDS011;21112;51.976;5.660;2022-08-21T02:23:06;4.43;;;1.70;;
34900;SDS011;21112;51.976;5.660;2022-08-21T02:25:33;3.92;;;1.77;;
34900;SDS011;21112;51.976;5.660;2022-08-21T02:28:02;4.03;;;1.67;;
34900;SDS011;21112;51.976;5.660;2022-08-21T02:30:33;3.90;;;1.70;;
34900;SDS011;21112;51.976;5.660;2022-08-21T02:33:00;3.88;;;1.58;;
34900;SDS011;21112;51.976;5.660;2022-08-21T02:35:27;4.05;;;1.80;;
34900;SDS011;21112;51.976;5.660;2022-08-21T02:37:55;5.72;;;1.80;;
34900;SDS011;21112;51.976;5.660;2022-08-21T02:40:23;3.90;;;1.85;;
34900;SDS011;21112;51.976;5.660;2022-08-21T02:42:50;4.28;;;1.73;;
34900;SDS011;21112;51.976;5.660;2022-08-21T02:45:16;4.18;;;1.75;;
34900;SDS011;21112;51.976;5.660;2022-08-21T02:47:48;3.95;;;1.85;;
34900;SDS011;21112;51.976;5.660;2022-08-21T02:53:36;4.90;;;1.70;;
34900;SDS011;21112;51.976;5.660;2022-08-21T02:56:04;5.45;;;1.75;;
34900;SDS011;21112;51.976;5.660;2022-08-21T03:00:59;3.83;;;1.83;;
34900;SDS011;21112;51.976;5.660;2022-08-21T03:03:27;3.70;;;1.60;;
34900;SDS011;21112;51.976;5.660;2022-08-21T03:08:22;2.85;;;1.60;;
34900;SDS011;21112;51.976;5.660;2022-08-21T03:10:53;3.13;;;1.60;;
34900;SDS011;21112;51.976;5.660;2022-08-21T03:13:20;3.58;;;1.63;;
34900;SDS011;21112;51.976;5.660;2022-08-21T03:15:56;3.53;;;1.73;;
34900;SDS011;21112;51.976;5.660;2022-08-21T03:18:23;4.40;;;2.25;;
34900;SDS011;21112;51.976;5.660;2022-08-21T03:20:58;5.88;;;2.58;;
34900;SDS011;21112;51.976;5.660;2022-08-21T03:23:26;3.90;;;1.63;;
34900;SDS011;21112;51.976;5.660;2022-08-21T03:25:56;3.22;;;1.77;;
34900;SDS011;21112;51.976;5.660;2022-08-21T03:28:24;4.03;;;1.80;;
34900;SDS011;21112;51.976;5.660;2022-08-21T03:30:52;5.90;;;1.63;;
34900;SDS011;21112;51.976;5.660;2022-08-21T03:33:22;4.13;;;1.67;;
34900;SDS011;21112;51.976;5.660;2022-08-21T03:35:52;2.90;;;1.67;;
34900;SDS011;21112;51.976;5.660;2022-08-21T03:38:22;4.22;;;1.85;;
34900;SDS011;21112;51.976;5.660;2022-08-21T03:40:49;5.03;;;1.90;;
34900;SDS011;21112;51.976;5.660;2022-08-21T03:43:15;5.97;;;1.85;;
34900;SDS011;21112;51.976;5.660;2022-08-21T03:45:42;4.93;;;2.45;;
34900;SDS011;21112;51.976;5.660;2022-08-21T03:48:09;4.95;;;2.00;;
34900;SDS011;21112;51.976;5.660;2022-08-21T03:50:36;4.07;;;2.10;;
34900;SDS011;21112;51.976;5.660;2022-08-21T03:53:03;5.35;;;2.08;;
34900;SDS011;21112;51.976;5.660;2022-08-21T03:55:31;4.57;;;1.60;;
34900;SDS011;21112;51.976;5.660;2022-08-21T03:57:58;4.22;;;1.75;;
34900;SDS011;21112;51.976;5.660;2022-08-21T04:00:25;5.15;;;1.92;;
34900;SDS011;21112;51.976;5.660;2022-08-21T04:02:51;5.30;;;1.90;;
34900;SDS011;21112;51.976;5.660;2022-08-21T04:05:19;3.55;;;1.45;;
34900;SDS011;21112;51.976;5.660;2022-08-21T04:07:56;3.40;;;1.73;;
34900;SDS011;21112;51.976;5.660;2022-08-21T04:10:23;4.03;;;1.77;;
34900;SDS011;21112;51.976;5.660;2022-08-21T04:12:52;3.20;;;1.85;;
34900;SDS011;21112;51.976;5.660;2022-08-21T04:15:19;3.75;;;1.73;;
34900;SDS011;21112;51.976;5.660;2022-08-21T04:17:45;5.50;;;1.70;;
34900;SDS011;21112;51.976;5.660;2022-08-21T04:20:13;5.45;;;1.90;;
34900;SDS011;21112;51.976;5.660;2022-08-21T04:22:40;4.32;;;1.88;;
34900;SDS011;21112;51.976;5.660;2022-08-21T04:25:07;4.68;;;2.00;;
34900;SDS011;21112;51.976;5.660;2022-08-21T04:27:34;4.63;;;1.90;;
34900;SDS011;21112;51.976;5.660;2022-08-21T04:30:02;3.08;;;1.70;;
34900;SDS011;21112;51.976;5.660;2022-08-21T04:32:29;3.20;;;1.73;;
34900;SDS011;21112;51.976;5.660;2022-08-21T04:34:58;5.63;;;2.05;;
34900;SDS011;21112;51.976;5.660;2022-08-21T04:37:26;3.67;;;1.90;;
34900;SDS011;21112;51.976;5.660;2022-08-21T04:39:52;5.25;;;1.75;;
34900;SDS011;21112;51.976;5.660;2022-08-21T04:44:48;3.33;;;1.67;;
34900;SDS011;21112;51.976;5.660;2022-08-21T04:47:16;4.18;;;2.08;;
34900;SDS011;21112;51.976;5.660;2022-08-21T04:49:43;4.47;;;1.90;;
34900;SDS011;21112;51.976;5.660;2022-08-21T04:52:19;3.42;;;1.70;;
34900;SDS011;21112;51.976;5.660;2022-08-21T04:54:46;4.38;;;1.85;;
34900;SDS011;21112;51.976;5.660;2022-08-21T04:57:13;3.75;;;1.88;;
34900;SDS011;21112;51.976;5.660;2022-08-21T04:59:42;4.55;;;1.90;;
34900;SDS011;21112;51.976;5.660;2022-08-21T05:02:11;6.25;;;3.05;;
34900;SDS011;21112;51.976;5.660;2022-08-21T05:04:41;4.45;;;2.00;;
34900;SDS011;21112;51.976;5.660;2022-08-21T05:07:10;3.45;;;1.70;;
34900;SDS011;21112;51.976;5.660;2022-08-21T05:09:38;4.43;;;2.05;;
34900;SDS011;21112;51.976;5.660;2022-08-21T05:12:06;4.45;;;1.85;;
34900;SDS011;21112;51.976;5.660;2022-08-21T05:14:33;4.95;;;2.10;;
34900;SDS011;21112;51.976;5.660;2022-08-21T05:16:59;3.92;;;1.85;;
34900;SDS011;21112;51.976;5.660;2022-08-21T05:19:26;6.45;;;2.72;;
34900;SDS011;21112;51.976;5.660;2022-08-21T05:21:55;8.55;;;3.33;;
34900;SDS011;21112;51.976;5.660;2022-08-21T05:24:22;5.38;;;2.00;;
34900;SDS011;21112;51.976;5.660;2022-08-21T05:26:49;4.65;;;2.53;;
34900;SDS011;21112;51.976;5.660;2022-08-21T05:29:16;5.32;;;2.25;;
34900;SDS011;21112;51.976;5.660;2022-08-21T05:31:44;4.38;;;1.80;;
34900;SDS011;21112;51.976;5.660;2022-08-21T05:34:10;3.90;;;2.00;;
34900;SDS011;21112;51.976;5.660;2022-08-21T05:36:37;4.03;;;1.75;;
34900;SDS011;21112;51.976;5.660;2022-08-21T05:39:05;3.55;;;1.58;;
34900;SDS011;21112;51.976;5.660;2022-08-21T05:41:32;9.25;;;3.58;;
34900;SDS011;21112;51.976;5.660;2022-08-21T05:43:58;5.53;;;2.40;;
34900;SDS011;21112;51.976;5.660;2022-08-21T05:46:25;4.88;;;2.55;;
34900;SDS011;21112;51.976;5.660;2022-08-21T05:48:51;7.45;;;2.60;;
34900;SDS011;21112;51.976;5.660;2022-08-21T05:51:18;4.82;;;2.10;;
34900;SDS011;21112;51.976;5.660;2022-08-21T05:53:45;15.07;;;4.68;;
34900;SDS011;21112;51.976;5.660;2022-08-21T05:56:14;10.18;;;4.60;;
34900;SDS011;21112;51.976;5.660;2022-08-21T05:58:41;4.65;;;2.00;;
34900;SDS011;21112;51.976;5.660;2022-08-21T06:01:09;4.10;;;2.15;;
34900;SDS011;21112;51.976;5.660;2022-08-21T06:06:05;12.10;;;4.13;;
34900;SDS011;21112;51.976;5.660;2022-08-21T06:08:32;6.72;;;2.40;;
34900;SDS011;21112;51.976;5.660;2022-08-21T06:10:59;8.43;;;3.85;;
34900;SDS011;21112;51.976;5.660;2022-08-21T06:13:28;12.57;;;4.30;;
34900;SDS011;21112;51.976;5.660;2022-08-21T06:16:00;9.90;;;3.85;;
34900;SDS011;21112;51.976;5.660;2022-08-21T06:18:27;11.73;;;3.42;;
34900;SDS011;21112;51.976;5.660;2022-08-21T06:21:04;9.18;;;3.65;;
34900;SDS011;21112;51.976;5.660;2022-08-21T06:23:30;5.50;;;2.67;;
34900;SDS011;21112;51.976;5.660;2022-08-21T06:25:57;9.80;;;3.05;;
34900;SDS011;21112;51.976;5.660;2022-08-21T06:28:24;7.88;;;3.75;;
34900;SDS011;21112;51.976;5.660;2022-08-21T06:30:52;7.28;;;2.53;;
34900;SDS011;21112;51.976;5.660;2022-08-21T06:33:19;12.48;;;4.05;;
34900;SDS011;21112;51.976;5.660;2022-08-21T06:35:45;9.98;;;3.53;;
34900;SDS011;21112;51.976;5.660;2022-08-21T06:38:12;7.88;;;3.13;;
34900;SDS011;21112;51.976;5.660;2022-08-21T06:40:41;8.80;;;3.13;;
34900;SDS011;21112;51.976;5.660;2022-08-21T06:43:08;4.35;;;1.80;;
34900;SDS011;21112;51.976;5.660;2022-08-21T06:45:35;8.75;;;3.10;;
34900;SDS011;21112;51.976;5.660;2022-08-21T06:48:03;10.27;;;3.47;;
34900;SDS011;21112;51.976;5.660;2022-08-21T06:50:36;6.03;;;2.10;;
34900;SDS011;21112;51.976;5.660;2022-08-21T06:53:04;8.70;;;2.40;;
34900;SDS011;21112;51.976;5.660;2022-08-21T06:55:30;7.03;;;2.23;;
34900;SDS011;21112;51.976;5.660;2022-08-21T06:57:57;11.30;;;3.45;;
34900;SDS011;21112;51.976;5.660;2022-08-21T07:00:24;13.65;;;3.42;;
34900;SDS011;21112;51.976;5.660;2022-08-21T07:02:50;9.95;;;2.97;;
34900;SDS011;21112;51.976;5.660;2022-08-21T07:05:20;16.45;;;3.78;;
34900;SDS011;21112;51.976;5.660;2022-08-21T07:07:47;9.50;;;3.35;;
34900;SDS011;21112;51.976;5.660;2022-08-21T07:10:15;8.27;;;3.35;;
34900;SDS011;21112;51.976;5.660;2022-08-21T07:12:42;11.93;;;2.70;;
34900;SDS011;21112;51.976;5.660;2022-08-21T07:15:09;10.68;;;2.97;;
34900;SDS011;21112;51.976;5.660;2022-08-21T07:17:35;11.98;;;3.38;;
34900;SDS011;21112;51.976;5.660;2022-08-21T07:20:03;7.38;;;2.45;;
34900;SDS011;21112;51.976;5.660;2022-08-21T07:22:31;7.70;;;2.58;;
34900;SDS011;21112;51.976;5.660;2022-08-21T07:24:58;7.40;;;2.60;;
34900;SDS011;21112;51.976;5.660;2022-08-21T07:27:24;11.50;;;3.45;;
34900;SDS011;21112;51.976;5.660;2022-08-21T07:29:52;10.52;;;3.28;;
34900;SDS011;21112;51.976;5.660;2022-08-21T07:32:18;7.75;;;2.30;;
34900;SDS011;21112;51.976;5.660;2022-08-21T07:34:45;15.02;;;3.17;;
34900;SDS011;21112;51.976;5.660;2022-08-21T07:37:11;10.77;;;2.95;;
34900;SDS011;21112;51.976;5.660;2022-08-21T07:39:40;10.50;;;3.08;;
34900;SDS011;21112;51.976;5.660;2022-08-21T07:42:06;10.02;;;3.45;;
34900;SDS011;21112;51.976;5.660;2022-08-21T07:44:33;15.65;;;3.42;;
34900;SDS011;21112;51.976;5.660;2022-08-21T07:47:00;12.07;;;2.85;;
34900;SDS011;21112;51.976;5.660;2022-08-21T07:49:27;8.50;;;2.92;;
34900;SDS011;21112;51.976;5.660;2022-08-21T07:51:53;15.35;;;2.80;;
34900;SDS011;21112;51.976;5.660;2022-08-21T07:54:20;5.10;;;1.67;;
34900;SDS011;21112;51.976;5.660;2022-08-21T07:56:49;17.10;;;2.75;;
34900;SDS011;21112;51.976;5.660;2022-08-21T07:59:18;8.60;;;1.95;;
34900;SDS011;21112;51.976;5.660;2022-08-21T08:01:44;9.43;;;2.70;;
34900;SDS011;21112;51.976;5.660;2022-08-21T08:04:11;11.30;;;2.45;;
34900;SDS011;21112;51.976;5.660;2022-08-21T08:06:38;7.72;;;2.35;;
34900;SDS011;21112;51.976;5.660;2022-08-21T08:09:04;11.95;;;3.15;;
34900;SDS011;21112;51.976;5.660;2022-08-21T08:11:31;10.60;;;2.80;;
34900;SDS011;21112;51.976;5.660;2022-08-21T08:14:00;10.70;;;2.22;;
34900;SDS011;21112;51.976;5.660;2022-08-21T08:16:28;8.57;;;2.45;;
34900;SDS011;21112;51.976;5.660;2022-08-21T08:18:55;10.85;;;3.25;;
34900;SDS011;21112;51.976;5.660;2022-08-21T08:21:22;15.23;;;2.88;;
34900;SDS011;21112;51.976;5.660;2022-08-21T08:23:49;9.05;;;2.97;;
34900;SDS011;21112;51.976;5.660;2022-08-21T08:26:16;8.75;;;1.90;;
34900;SDS011;21112;51.976;5.660;2022-08-21T08:28:43;11.02;;;2.15;;
34900;SDS011;21112;51.976;5.660;2022-08-21T08:31:13;10.10;;;2.53;;
34900;SDS011;21112;51.976;5.660;2022-08-21T08:33:40;15.90;;;2.78;;
34900;SDS011;21112;51.976;5.660;2022-08-21T08:36:11;7.85;;;2.40;;
34900;SDS011;21112;51.976;5.660;2022-08-21T08:38:38;8.80;;;2.53;;
34900;SDS011;21112;51.976;5.660;2022-08-21T08:41:10;11.50;;;2.53;;
34900;SDS011;21112;51.976;5.660;2022-08-21T08:43:40;7.82;;;2.10;;
34900;SDS011;21112;51.976;5.660;2022-08-21T08:46:12;9.35;;;1.85;;
34900;SDS011;21112;51.976;5.660;2022-08-21T08:48:44;12.52;;;2.50;;
34900;SDS011;21112;51.976;5.660;2022-08-21T08:51:14;8.43;;;2.53;;
34900;SDS011;21112;51.976;5.660;2022-08-21T08:53:45;10.63;;;2.90;;
34900;SDS011;21112;51.976;5.660;2022-08-21T08:56:13;10.13;;;2.25;;
34900;SDS011;21112;51.976;5.660;2022-08-21T08:58:43;8.40;;;2.22;;
34900;SDS011;21112;51.976;5.660;2022-08-21T09:01:12;10.52;;;2.92;;
34900;SDS011;21112;51.976;5.660;2022-08-21T09:03:42;8.45;;;2.63;;
34900;SDS011;21112;51.976;5.660;2022-08-21T09:06:17;12.15;;;2.55;;
34900;SDS011;21112;51.976;5.660;2022-08-21T09:08:49;14.02;;;2.33;;
34900;SDS011;21112;51.976;5.660;2022-08-21T09:11:21;7.38;;;1.95;;
34900;SDS011;21112;51.976;5.660;2022-08-21T09:13:50;7.78;;;2.00;;
34900;SDS011;21112;51.976;5.660;2022-08-21T09:16:26;9.38;;;1.88;;
34900;SDS011;21112;51.976;5.660;2022-08-21T09:18:59;12.48;;;2.35;;
34900;SDS011;21112;51.976;5.660;2022-08-21T09:21:37;7.40;;;1.95;;
34900;SDS011;21112;51.976;5.660;2022-08-21T09:24:12;8.63;;;1.67;;
34900;SDS011;21112;51.976;5.660;2022-08-21T09:26:44;5.53;;;1.42;;
34900;SDS011;21112;51.976;5.660;2022-08-21T09:29:13;6.40;;;1.70;;
34900;SDS011;21112;51.976;5.660;2022-08-21T09:31:44;9.60;;;1.60;;
34900;SDS011;21112;51.976;5.660;2022-08-21T09:34:12;4.25;;;1.45;;
34900;SDS011;21112;51.976;5.660;2022-08-21T09:36:50;6.75;;;1.60;;
34900;SDS011;21112;51.976;5.660;2022-08-21T09:39:21;12.73;;;1.63;;
34900;SDS011;21112;51.976;5.660;2022-08-21T09:41:54;13.13;;;1.92;;
34900;SDS011;21112;51.976;5.660;2022-08-21T09:44:24;6.63;;;1.52;;
34900;SDS011;21112;51.976;5.660;2022-08-21T09:46:51;9.38;;;1.63;;
34900;SDS011;21112;51.976;5.660;2022-08-21T09:49:27;11.60;;;2.05;;
34900;SDS011;21112;51.976;5.660;2022-08-21T09:51:55;9.57;;;1.77;;
34900;SDS011;21112;51.976;5.660;2022-08-21T09:54:24;7.90;;;1.55;;
34900;SDS011;21112;51.976;5.660;2022-08-21T09:56:53;10.07;;;1.70;;
34900;SDS011;21112;51.976;5.660;2022-08-21T09:59:38;7.75;;;1.67;;
34900;SDS011;21112;51.976;5.660;2022-08-21T10:02:21;9.07;;;1.50;;
34900;SDS011;21112;51.976;5.660;2022-08-21T10:04:51;7.63;;;1.48;;
34900;SDS011;21112;51.976;5.660;2022-08-21T10:07:19;10.43;;;1.92;;
34900;SDS011;21112;51.976;5.660;2022-08-21T10:09:57;7.35;;;1.90;;
34900;SDS011;21112;51.976;5.660;2022-08-21T10:12:24;7.80;;;1.70;;
34900;SDS011;21112;51.976;5.660;2022-08-21T10:14:56;7.97;;;1.77;;
34900;SDS011;21112;51.976;5.660;2022-08-21T10:17:27;10.50;;;1.92;;
34900;SDS011;21112;51.976;5.660;2022-08-21T10:20:03;7.20;;;1.90;;
34900;SDS011;21112;51.976;5.660;2022-08-21T10:22:34;8.10;;;1.77;;
34900;SDS011;21112;51.976;5.660;2022-08-21T10:25:06;12.57;;;1.98;;
34900;SDS011;21112;51.976;5.660;2022-08-21T10:27:37;6.97;;;1.70;;
34900;SDS011;21112;51.976;5.660;2022-08-21T10:30:08;6.18;;;1.55;;
34900;SDS011;21112;51.976;5.660;2022-08-21T10:32:40;8.90;;;1.40;;
34900;SDS011;21112;51.976;5.660;2022-08-21T10:35:13;6.97;;;1.50;;
34900;SDS011;21112;51.976;5.660;2022-08-21T10:37:56;7.07;;;1.77;;
34900;SDS011;21112;51.976;5.660;2022-08-21T10:40:27;7.85;;;1.88;;
34900;SDS011;21112;51.976;5.660;2022-08-21T10:43:09;6.00;;;1.27;;
34900;SDS011;21112;51.976;5.660;2022-08-21T10:45:43;9.90;;;2.53;;
34900;SDS011;21112;51.976;5.660;2022-08-21T10:48:14;9.95;;;2.15;;
34900;SDS011;21112;51.976;5.660;2022-08-21T10:50:47;5.63;;;1.67;;
34900;SDS011;21112;51.976;5.660;2022-08-21T10:53:28;10.88;;;2.50;;
34900;SDS011;21112;51.976;5.660;2022-08-21T10:56:01;5.95;;;1.70;;
34900;SDS011;21112;51.976;5.660;2022-08-21T10:58:29;9.82;;;1.85;;
34900;SDS011;21112;51.976;5.660;2022-08-21T11:00:57;6.95;;;1.52;;
34900;SDS011;21112;51.976;5.660;2022-08-21T11:03:27;5.57;;;1.60;;
34900;SDS011;21112;51.976;5.660;2022-08-21T11:05:58;8.88;;;1.58;;
34900;SDS011;21112;51.976;5.660;2022-08-21T11:08:26;7.80;;;1.70;;
34900;SDS011;21112;51.976;5.660;2022-08-21T11:10:57;8.13;;;1.55;;
34900;SDS011;21112;51.976;5.660;2022-08-21T11:13:27;9.13;;;1.85;;
34900;SDS011;21112;51.976;5.660;2022-08-21T11:15:56;5.13;;;1.42;;
34900;SDS011;21112;51.976;5.660;2022-08-21T11:18:26;6.93;;;1.85;;
34900;SDS011;21112;51.976;5.660;2022-08-21T11:20:59;7.22;;;2.35;;
34900;SDS011;21112;51.976;5.660;2022-08-21T11:23:29;8.52;;;1.77;;
34900;SDS011;21112;51.976;5.660;2022-08-21T11:25:58;5.75;;;1.40;;
34900;SDS011;21112;51.976;5.660;2022-08-21T11:28:28;11.95;;;1.50;;
34900;SDS011;21112;51.976;5.660;2022-08-21T11:30:58;4.57;;;1.30;;
34900;SDS011;21112;51.976;5.660;2022-08-21T11:33:31;10.63;;;1.90;;
34900;SDS011;21112;51.976;5.660;2022-08-21T11:36:02;14.70;;;2.15;;
34900;SDS011;21112;51.976;5.660;2022-08-21T11:38:34;28.02;;;2.13;;
34900;SDS011;21112;51.976;5.660;2022-08-21T11:41:08;7.65;;;1.50;;
34900;SDS011;21112;51.976;5.660;2022-08-21T11:43:37;17.20;;;1.70;;
34900;SDS011;21112;51.976;5.660;2022-08-21T11:46:10;16.35;;;1.92;;
34900;SDS011;21112;51.976;5.660;2022-08-21T11:48:39;28.42;;;2.22;;
34900;SDS011;21112;51.976;5.660;2022-08-21T11:51:09;9.02;;;1.58;;
34900;SDS011;21112;51.976;5.660;2022-08-21T11:53:38;5.22;;;1.17;;
34900;SDS011;21112;51.976;5.660;2022-08-21T11:56:06;12.75;;;2.17;;
34900;SDS011;21112;51.976;5.660;2022-08-21T11:58:36;21.42;;;2.53;;
34900;SDS011;21112;51.976;5.660;2022-08-21T12:03:31;9.23;;;2.05;;
34900;SDS011;21112;51.976;5.660;2022-08-21T12:06:00;14.68;;;1.90;;
34900;SDS011;21112;51.976;5.660;2022-08-21T12:08:29;7.05;;;1.23;;
34900;SDS011;21112;51.976;5.660;2022-08-21T12:11:00;7.38;;;1.63;;
34900;SDS011;21112;51.976;5.660;2022-08-21T12:13:28;11.07;;;1.70;;
34900;SDS011;21112;51.976;5.660;2022-08-21T12:16:04;9.95;;;1.80;;
34900;SDS011;21112;51.976;5.660;2022-08-21T12:18:31;10.00;;;2.13;;
34900;SDS011;21112;51.976;5.660;2022-08-21T12:20:59;9.70;;;2.55;;
34900;SDS011;21112;51.976;5.660;2022-08-21T12:23:29;10.88;;;2.65;;
34900;SDS011;21112;51.976;5.660;2022-08-21T12:26:01;5.88;;;1.88;;
34900;SDS011;21112;51.976;5.660;2022-08-21T12:28:28;10.77;;;1.90;;
34900;SDS011;21112;51.976;5.660;2022-08-21T12:30:56;11.20;;;1.45;;
34900;SDS011;21112;51.976;5.660;2022-08-21T12:33:26;4.35;;;1.40;;
34900;SDS011;21112;51.976;5.660;2022-08-21T12:36:01;12.93;;;1.55;;
34900;SDS011;21112;51.976;5.660;2022-08-21T12:38:32;6.88;;;1.70;;
34900;SDS011;21112;51.976;5.660;2022-08-21T12:41:00;8.10;;;1.50;;
34900;SDS011;21112;51.976;5.660;2022-08-21T12:45:56;13.45;;;1.58;;
34900;SDS011;21112;51.976;5.660;2022-08-21T12:48:27;6.68;;;1.30;;
34900;SDS011;21112;51.976;5.660;2022-08-21T12:50:56;9.75;;;1.58;;
34900;SDS011;21112;51.976;5.660;2022-08-21T12:53:25;8.38;;;1.50;;
34900;SDS011;21112;51.976;5.660;2022-08-21T12:55:54;10.52;;;1.92;;
34900;SDS011;21112;51.976;5.660;2022-08-21T12:58:25;9.02;;;1.60;;
34900;SDS011;21112;51.976;5.660;2022-08-21T13:00:52;5.43;;;1.98;;
34900;SDS011;21112;51.976;5.660;2022-08-21T13:03:19;9.77;;;1.70;;
34900;SDS011;21112;51.976;5.660;2022-08-21T13:08:16;7.50;;;1.50;;
34900;SDS011;21112;51.976;5.660;2022-08-21T13:10:43;6.93;;;1.52;;
34900;SDS011;21112;51.976;5.660;2022-08-21T13:13:12;5.97;;;1.48;;
34900;SDS011;21112;51.976;5.660;2022-08-21T13:15:41;8.35;;;2.17;;
34900;SDS011;21112;51.976;5.660;2022-08-21T13:18:08;9.75;;;1.77;;
34900;SDS011;21112;51.976;5.660;2022-08-21T13:20:48;6.95;;;1.30;;
34900;SDS011;21112;51.976;5.660;2022-08-21T13:23:20;5.13;;;1.80;;
34900;SDS011;21112;51.976;5.660;2022-08-21T13:25:47;8.20;;;4.50;;
34900;SDS011;21112;51.976;5.660;2022-08-21T13:28:15;8.93;;;3.15;;
34900;SDS011;21112;51.976;5.660;2022-08-21T13:30:44;5.93;;;1.77;;
34900;SDS011;21112;51.976;5.660;2022-08-21T13:33:12;7.80;;;3.15;;
34900;SDS011;21112;51.976;5.660;2022-08-21T13:35:46;5.47;;;1.42;;
34900;SDS011;21112;51.976;5.660;2022-08-21T13:38:13;7.03;;;2.15;;
34900;SDS011;21112;51.976;5.660;2022-08-21T13:40:42;10.00;;;3.72;;
34900;SDS011;21112;51.976;5.660;2022-08-21T13:43:11;12.15;;;3.63;;
34900;SDS011;21112;51.976;5.660;2022-08-21T13:45:43;4.97;;;1.52;;
34900;SDS011;21112;51.976;5.660;2022-08-21T13:48:09;6.20;;;3.17;;
34900;SDS011;21112;51.976;5.660;2022-08-21T13:50:36;6.90;;;2.83;;
34900;SDS011;21112;51.976;5.660;2022-08-21T13:55:35;5.07;;;2.13;;
34900;SDS011;21112;51.976;5.660;2022-08-21T13:58:03;8.90;;;1.92;;
34900;SDS011;21112;51.976;5.660;2022-08-21T14:00:32;7.00;;;3.43;;
34900;SDS011;21112;51.976;5.660;2022-08-21T14:03:03;6.25;;;2.55;;
34900;SDS011;21112;51.976;5.660;2022-08-21T14:05:31;5.63;;;2.10;;
34900;SDS011;21112;51.976;5.660;2022-08-21T14:07:59;7.90;;;2.92;;
34900;SDS011;21112;51.976;5.660;2022-08-21T14:10:28;9.05;;;2.53;;
34900;SDS011;21112;51.976;5.660;2022-08-21T14:12:55;10.93;;;2.63;;
34900;SDS011;21112;51.976;5.660;2022-08-21T14:15:24;3.83;;;2.08;;
34900;SDS011;21112;51.976;5.660;2022-08-21T14:17:53;9.20;;;1.60;;
34900;SDS011;21112;51.976;5.660;2022-08-21T14:20:28;10.30;;;1.60;;
34900;SDS011;21112;51.976;5.660;2022-08-21T14:22:55;6.13;;;2.70;;
34900;SDS011;21112;51.976;5.660;2022-08-21T14:25:30;5.80;;;2.15;;
34900;SDS011;21112;51.976;5.660;2022-08-21T14:28:01;7.20;;;2.08;;
34900;SDS011;21112;51.976;5.660;2022-08-21T14:30:29;6.57;;;1.70;;
34900;SDS011;21112;51.976;5.660;2022-08-21T14:32:57;6.72;;;1.70;;
34900;SDS011;21112;51.976;5.660;2022-08-21T14:35:25;6.97;;;1.40;;
34900;SDS011;21112;51.976;5.660;2022-08-21T14:37:53;5.97;;;1.80;;
34900;SDS011;21112;51.976;5.660;2022-08-21T14:40:23;10.07;;;1.70;;
34900;SDS011;21112;51.976;5.660;2022-08-21T14:42:51;3.22;;;1.52;;
34900;SDS011;21112;51.976;5.660;2022-08-21T14:45:18;4.85;;;1.55;;
34900;SDS011;21112;51.976;5.660;2022-08-21T14:47:46;6.05;;;1.40;;
34900;SDS011;21112;51.976;5.660;2022-08-21T14:50:13;5.43;;;1.40;;
34900;SDS011;21112;51.976;5.660;2022-08-21T14:52:40;6.63;;;1.25;;
34900;SDS011;21112;51.976;5.660;2022-08-21T14:55:09;3.83;;;1.58;;
34900;SDS011;21112;51.976;5.660;2022-08-21T14:57:39;5.28;;;1.55;;
34900;SDS011;21112;51.976;5.660;2022-08-21T15:00:06;4.57;;;1.30;;
34900;SDS011;21112;51.976;5.660;2022-08-21T15:02:33;7.43;;;1.48;;
34900;SDS011;21112;51.976;5.660;2022-08-21T15:05:00;4.55;;;1.50;;
34900;SDS011;21112;51.976;5.660;2022-08-21T15:07:26;5.57;;;1.50;;
34900;SDS011;21112;51.976;5.660;2022-08-21T15:09:53;3.67;;;1.30;;
34900;SDS011;21112;51.976;5.660;2022-08-21T15:12:24;5.75;;;1.70;;
34900;SDS011;21112;51.976;5.660;2022-08-21T15:14:52;3.45;;;1.20;;
34900;SDS011;21112;51.976;5.660;2022-08-21T15:17:19;7.93;;;1.30;;